Time;durP1;ratioP1;P1;durP2;ratioP2;P2;SDS_P1;SDS_P2;PMS_P1;PMS_P2;Temp;Humidity;BMP_temperature;BMP_pressure;BME280_temperature;BME280_humidity;BME280_pressure;Samples;Min_cycle;Max_cycle;Signal;HPM_P1;HPM_P2
2022/02/02 00:01:36;;;;;;;8.55;3.55;;;;;;;-1.02;63.95;98456.69;5003256;28;20073;-76
2022/02/02 00:04:02;;;;;;;7.80;4.00;;;;;;;-1.08;64.41;98449.81;5021817;28;20517;-77
2022/02/02 00:06:38;;;;;;;6.45;3.40;;;;;;;-1.03;64.65;98465.19;5009207;28;20064;-79
2022/02/02 00:09:09;;;;;;;5.18;3.00;;;;;;;-1.09;64.42;98463.41;5001418;28;20544;-76
2022/02/02 00:16:55;;;;;;;7.57;3.70;;;;;;;-1.22;64.31;98468.31;5022859;28;20051;-79
2022/02/02 00:19:38;;;;;;;4.72;2.63;;;;;;;-1.28;64.77;98464.78;5002378;28;20432;-79
2022/02/02 00:22:13;;;;;;;8.32;3.45;;;;;;;-1.17;65.25;98477.72;5009427;28;20172;-80
2022/02/02 00:27:19;;;;;;;7.00;3.50;;;;;;;-1.34;64.67;98437.47;5011712;28;20487;-74
2022/02/02 00:29:51;;;;;;;6.10;2.95;;;;;;;-1.16;65.22;98472.66;5025661;28;20049;-79
2022/02/02 00:34:43;;;;;;;6.53;3.70;;;;;;;-1.19;65.67;98464.06;5008812;28;20045;-78
2022/02/02 00:37:09;;;;;;;6.43;3.80;;;;;;;-1.11;64.81;98478.72;5012023;28;20041;-77
2022/02/02 00:39:34;;;;;;;6.00;3.33;;;;;;;-1.13;64.49;98469.28;5004640;28;20164;-77
2022/02/02 00:42:02;;;;;;;5.95;3.22;;;;;;;-1.14;65.07;98471.00;5006823;28;20509;-79
2022/02/02 00:44:28;;;;;;;8.40;4.20;;;;;;;-1.26;65.49;98451.22;5003172;28;20501;-76
2022/02/02 00:46:55;;;;;;;6.18;3.30;;;;;;;-1.47;65.44;98428.72;4990369;28;20061;-79
2022/02/02 00:49:22;;;;;;;7.28;4.00;;;;;;;-1.18;65.67;98476.88;5001497;28;20037;-79
2022/02/02 00:51:49;;;;;;;5.97;2.80;;;;;;;-1.16;65.37;98487.09;5004167;28;20052;-78
2022/02/02 00:54:17;;;;;;;7.32;3.22;;;;;;;-1.17;65.35;98485.38;5022440;28;20087;-78
2022/02/02 00:56:43;;;;;;;7.15;3.40;;;;;;;-1.21;65.41;98476.81;5001050;28;20417;-75
2022/02/02 00:59:10;;;;;;;6.97;3.63;;;;;;;-1.28;65.34;98473.31;5021299;28;20034;-75
2022/02/02 01:01:37;;;;;;;5.63;3.00;;;;;;;-1.33;65.73;98466.41;4991478;28;20404;-77
2022/02/02 01:04:03;;;;;;;5.90;3.35;;;;;;;-1.36;65.17;98462.09;5006914;28;20496;-77
2022/02/02 01:06:35;;;;;;;6.53;3.75;;;;;;;-1.31;65.57;98473.25;5006501;28;20039;-80
2022/02/02 01:19:38;;;;;;;6.20;3.47;;;;;;;-1.35;65.83;98471.47;5004479;28;20528;-76
2022/02/02 01:30:06;;;;;;;9.00;4.72;;;;;;;-1.29;65.85;98470.72;5006178;28;20103;-76
2022/02/02 01:32:32;;;;;;;5.07;3.10;;;;;;;-1.16;66.02;98487.09;5022458;28;20567;-78
2022/02/02 01:34:58;;;;;;;6.53;3.03;;;;;;;-1.22;66.02;98470.88;5001645;28;20092;-76
2022/02/02 01:37:25;;;;;;;5.32;3.40;;;;;;;-1.14;66.28;98486.31;5002800;28;20034;-78
2022/02/02 01:39:58;;;;;;;5.50;2.97;;;;;;;-1.18;65.71;98476.00;5012111;28;20045;-77
2022/02/02 01:42:28;;;;;;;5.00;3.30;;;;;;;-1.09;66.17;98494.88;5024306;28;20046;-76
2022/02/02 01:45:03;;;;;;;5.75;3.25;;;;;;;-1.13;66.47;98480.38;5037116;28;20040;-78
2022/02/02 01:47:36;;;;;;;6.85;3.60;;;;;;;-1.04;66.39;98489.00;5018125;28;20036;-76
2022/02/02 01:50:17;;;;;;;5.32;3.50;;;;;;;-1.03;65.57;98481.38;5032502;28;20078;-76
2022/02/02 01:53:07;;;;;;;5.75;3.30;;;;;;;-0.99;66.11;98483.13;5028963;28;20132;-79
2022/02/02 01:55:38;;;;;;;7.43;3.60;;;;;;;-1.11;66.00;98478.72;5031320;28;20104;-80
2022/02/02 01:58:46;;;;;;;6.15;3.50;;;;;;;-1.22;65.98;98473.41;4995482;28;20068;-76
2022/02/02 02:01:13;;;;;;;7.25;3.38;;;;;;;-1.16;65.70;98479.44;5021887;28;20092;-77
2022/02/02 02:03:39;;;;;;;6.45;3.28;;;;;;;-1.19;65.59;98485.38;5021769;28;20065;-76
2022/02/02 02:06:06;;;;;;;6.20;3.42;;;;;;;-1.24;65.75;98477.63;5023588;28;20049;-79
2022/02/02 02:08:35;;;;;;;7.03;3.40;;;;;;;-1.25;66.03;98481.03;5025472;28;20053;-76
2022/02/02 02:11:02;;;;;;;5.07;3.05;;;;;;;-1.21;65.88;98487.03;5037169;28;20046;-77
2022/02/02 02:16:14;;;;;;;6.25;3.42;;;;;;;-1.24;65.88;98480.19;5024388;28;20065;-78
2022/02/02 02:18:40;;;;;;;5.78;3.03;;;;;;;-1.16;65.62;98490.53;5042311;28;20501;-79
2022/02/02 02:21:11;;;;;;;5.20;2.70;;;;;;;-1.31;65.59;98491.13;5025865;28;20065;-77
2022/02/02 02:23:37;;;;;;;6.13;3.42;;;;;;;-1.30;65.43;98492.84;5005129;28;20049;-77
2022/02/02 02:26:05;;;;;;;5.57;3.42;;;;;;;-1.29;65.12;98498.78;5018868;28;20408;-76
2022/02/02 02:28:53;;;;;;;5.75;3.28;;;;;;;-1.30;65.74;98497.06;4997292;28;20165;-78
2022/02/02 02:31:32;;;;;;;4.65;2.70;;;;;;;-1.33;65.67;98495.34;5021808;28;20041;-79
2022/02/02 02:55:59;;;;;;;6.43;3.30;;;;;;;-1.54;65.41;98513.63;5026018;28;20718;-78
2022/02/02 03:30:56;;;;;;;6.40;3.33;;;;;;;-1.76;64.58;98559.13;4987488;28;20466;-76
2022/02/02 04:05:43;;;;;;;6.28;3.35;;;;;;;-2.02;64.82;98610.47;5021628;28;20071;-78
2022/02/02 04:10:58;;;;;;;5.07;2.78;;;;;;;-2.17;64.44;98605.88;5021848;28;20049;-76
2022/02/02 04:38:00;;;;;;;6.15;3.22;;;;;;;-2.27;64.48;98627.75;5002783;28;20058;-78
2022/02/02 04:59:35;;;;;;;5.78;3.35;;;;;;;-2.84;64.25;98625.44;5020199;28;20552;-77
2022/02/02 05:07:43;;;;;;;4.43;2.80;;;;;;;-2.85;63.91;98651.72;4955055;28;20425;-75
2022/02/02 05:10:29;;;;;;;7.28;3.92;;;;;;;-3.04;64.45;98613.06;5022904;28;20046;-77
2022/02/02 05:16:10;;;;;;;7.88;3.95;;;;;;;-2.75;64.20;98666.44;5027387;28;20072;-78
2022/02/02 05:53:07;;;;;;;;;;;;;;;-2.48;63.80;98686.66;4996481;28;20408;-76
2022/02/02 05:55:41;;;;;;;6.40;3.40;;;;;;;-2.47;64.18;98685.84;5005017;28;19921;-75
2022/02/02 05:58:08;;;;;;;6.35;3.33;;;;;;;-2.53;63.73;98683.13;5025482;28;20046;-76
2022/02/02 06:00:37;;;;;;;6.13;3.78;;;;;;;-2.43;63.68;98695.28;5009580;28;20042;-76
2022/02/02 06:03:12;;;;;;;6.65;3.85;;;;;;;-2.36;64.01;98692.91;5026299;28;20463;-75
2022/02/02 06:05:39;;;;;;;7.20;4.13;;;;;;;-2.32;63.83;98699.81;5023422;28;20068;-76
2022/02/02 06:08:13;;;;;;;8.02;3.60;;;;;;;-2.25;64.05;98695.72;4974512;28;20050;-76
2022/02/02 06:10:41;;;;;;;7.25;3.55;;;;;;;-2.23;63.80;98689.84;5012743;28;20050;-78
2022/02/02 06:13:10;;;;;;;7.03;3.78;;;;;;;-2.31;63.68;98682.00;5007740;28;20128;-77
2022/02/02 06:15:36;;;;;;;8.27;3.60;;;;;;;-2.17;63.89;98690.00;5003530;28;20049;-75
2022/02/02 06:18:05;;;;;;;6.00;3.75;;;;;;;-2.13;63.77;98680.72;4987708;28;20045;-78
2022/02/02 06:20:34;;;;;;;7.07;3.53;;;;;;;-2.12;63.49;98678.22;4994673;28;21056;-77
2022/02/02 06:23:00;;;;;;;9.52;4.57;;;;;;;-2.03;63.92;98695.44;5017394;28;20041;-76
2022/02/02 06:25:34;;;;;;;7.72;3.78;;;;;;;-2.20;63.66;98659.31;5026538;28;20049;-76
2022/02/02 06:28:04;;;;;;;8.00;3.50;;;;;;;-1.98;63.77;98695.53;4971341;28;20064;-77
2022/02/02 06:30:32;;;;;;;7.38;3.58;;;;;;;-2.04;63.18;98691.16;5022918;28;20079;-77
2022/02/02 06:33:02;;;;;;;7.93;4.25;;;;;;;-2.04;63.39;98700.47;5010469;28;20069;-75
2022/02/02 06:35:29;;;;;;;8.55;4.30;;;;;;;-2.04;63.19;98695.38;5005629;28;20041;-78
2022/02/02 06:37:55;;;;;;;7.25;3.85;;;;;;;-1.93;63.16;98708.38;5023965;28;20042;-75
2022/02/02 06:40:23;;;;;;;7.47;3.88;;;;;;;-1.90;63.84;98714.44;5009019;28;20048;-76
2022/02/02 06:42:50;;;;;;;7.50;3.92;;;;;;;-1.94;63.39;98715.19;5008396;28;20497;-76
2022/02/02 06:45:18;;;;;;;6.75;4.05;;;;;;;-1.92;63.54;98711.00;4991636;28;20042;-77
2022/02/02 06:47:45;;;;;;;7.68;3.95;;;;;;;-1.86;63.61;98725.56;5006617;28;20029;-75
2022/02/02 06:56:09;;;;;;;6.50;3.58;;;;;;;-1.89;63.54;98716.16;5008178;28;20064;-76
2022/02/02 06:59:04;;;;;;;8.80;3.80;;;;;;;-1.64;63.89;98742.22;4987757;28;20042;-79
2022/02/02 07:04:55;;;;;;;7.50;3.50;;;;;;;-1.72;63.68;98725.91;5038177;28;20045;-77
2022/02/02 07:13:37;;;;;;;8.32;3.55;;;;;;;-1.61;63.37;98746.56;5004890;28;20038;-76
2022/02/02 07:29:09;;;;;;;4.88;2.85;;;;;;;-1.25;63.24;98760.97;5023013;28;20037;-76
2022/02/02 07:32:05;;;;;;;7.32;3.33;;;;;;;-1.24;63.64;98757.59;4989920;28;20064;-76
2022/02/02 07:34:49;;;;;;;6.50;3.17;;;;;;;-0.97;62.91;98775.19;5020920;28;20065;-78
2022/02/02 07:37:30;;;;;;;5.47;3.00;;;;;;;-0.91;62.90;98771.91;5022281;28;20511;-76
2022/02/02 07:40:02;;;;;;;5.75;2.78;;;;;;;-0.97;62.26;98761.56;5025200;28;20504;-75
2022/02/02 07:42:29;;;;;;;6.50;3.30;;;;;;;-0.95;63.04;98768.41;5023025;28;20048;-78
2022/02/02 07:45:14;;;;;;;4.55;2.97;;;;;;;-0.96;63.22;98771.78;4990055;28;20046;-77
2022/02/02 07:47:43;;;;;;;6.20;3.15;;;;;;;-0.91;62.45;98777.03;5007597;28;20049;-76
2022/02/02 07:50:13;;;;;;;6.22;3.50;;;;;;;-0.98;62.44;98790.47;5022920;28;20049;-76
2022/02/02 07:52:41;;;;;;;6.93;3.65;;;;;;;-1.01;63.33;98792.97;5009783;28;20056;-77
2022/02/02 07:55:09;;;;;;;6.20;3.30;;;;;;;-1.12;63.15;98780.84;5017316;28;20037;-75
2022/02/02 07:57:36;;;;;;;5.78;3.05;;;;;;;-1.09;62.97;98788.53;5004305;28;20046;-79
2022/02/02 08:00:07;;;;;;;7.93;3.83;;;;;;;-0.94;62.94;98813.56;4988672;28;20160;-77
2022/02/02 08:05:11;;;;;;;6.63;3.13;;;;;;;-0.97;62.93;98818.59;5002681;28;20493;-76
2022/02/02 08:07:47;;;;;;;7.25;3.40;;;;;;;-1.00;62.68;98810.91;4988898;28;20050;-77
2022/02/02 08:10:18;;;;;;;5.60;3.00;;;;;;;-1.04;62.62;98808.22;5022711;28;20041;-76
2022/02/02 08:13:00;;;;;;;5.72;3.17;;;;;;;-1.06;63.08;98816.72;5023279;28;20075;-76
2022/02/02 08:15:30;;;;;;;5.80;3.38;;;;;;;-0.97;62.47;98808.38;5025250;28;20400;-78
2022/02/02 08:17:56;;;;;;;6.15;3.20;;;;;;;-0.86;62.94;98828.19;5004796;28;21187;-77
2022/02/02 08:20:24;;;;;;;5.85;3.55;;;;;;;-0.77;62.36;98820.72;5010198;28;20480;-77
2022/02/02 08:22:49;;;;;;;6.05;3.13;;;;;;;-0.78;62.67;98808.81;5009630;28;20041;-78
2022/02/02 08:25:27;;;;;;;7.00;3.03;;;;;;;-0.88;62.72;98781.31;5025306;28;20463;-75
2022/02/02 08:27:59;;;;;;;4.57;2.42;;;;;;;-0.57;62.56;98818.59;5006418;28;20059;-77
2022/02/02 08:30:28;;;;;;;5.05;3.28;;;;;;;-0.54;62.10;98823.75;4992935;28;20950;-79
2022/02/02 08:32:59;;;;;;;6.22;3.10;;;;;;;-0.74;62.64;98795.22;5024934;28;20092;-79
2022/02/02 08:35:48;;;;;;;5.03;2.88;;;;;;;-0.59;61.83;98815.13;5026486;28;20045;-77
2022/02/02 08:41:04;;;;;;;5.65;3.22;;;;;;;-0.73;62.34;98807.19;5017992;28;20037;-77
2022/02/02 08:44:19;;;;;;;5.53;3.25;;;;;;;-0.59;61.96;98815.13;5039267;28;20073;-77
2022/02/02 08:46:28;;;;;;;5.95;2.85;;;;;;;-0.53;61.76;98819.50;5020856;28;20132;-79
2022/02/02 08:48:56;;;;;;;5.03;2.95;;;;;;;-0.34;61.84;98836.06;5011118;28;20088;-76
2022/02/02 08:51:25;;;;;;;4.53;2.55;;;;;;;-0.53;61.36;98810.16;5013396;28;20038;-77
2022/02/02 08:59:10;;;;;;;6.82;2.65;;;;;;;-0.75;61.15;98806.28;5033524;28;20052;-79
2022/02/02 09:01:37;;;;;;;5.78;2.90;;;;;;;-0.79;61.68;98812.19;4981465;28;20041;-78
2022/02/02 09:06:48;;;;;;;5.57;2.53;;;;;;;-0.85;61.17;98819.72;5006556;28;20041;-78
2022/02/02 09:09:40;;;;;;;4.97;2.80;;;;;;;-0.85;61.70;98833.31;5026972;28;20072;-76
2022/02/02 09:25:34;;;;;;;5.47;2.75;;;;;;;-0.70;61.78;98858.34;5024571;28;20493;-77
2022/02/02 09:36:19;;;;;;;6.22;3.00;;;;;;;-0.47;60.81;98869.06;5020533;28;20118;-75
2022/02/02 09:38:45;;;;;;;6.40;2.83;;;;;;;-0.39;61.53;98859.00;5007391;28;20058;-77
2022/02/02 09:43:44;;;;;;;4.97;2.67;;;;;;;-0.53;60.64;98856.16;5003400;28;20053;-77
2022/02/02 09:46:14;;;;;;;5.57;2.50;;;;;;;-0.71;60.38;98833.63;4994983;28;20069;-75
2022/02/02 09:48:47;;;;;;;9.20;3.92;;;;;;;-0.48;60.84;98879.25;5026227;28;20072;-77
2022/02/02 09:51:20;;;;;;;7.10;3.00;;;;;;;-0.51;60.52;98861.28;5005312;28;20142;-74
2022/02/02 09:59:21;;;;;;;6.68;2.97;;;;;;;-0.46;60.32;98857.13;5022572;28;20045;-78
2022/02/02 10:02:17;;;;;;;5.38;2.33;;;;;;;-0.51;60.19;98849.38;5012719;28;20041;-75
2022/02/02 10:05:15;;;;;;;4.15;2.70;;;;;;;-0.53;60.36;98837.38;4998683;28;20046;-79
2022/02/02 10:15:23;;;;;;;4.93;2.35;;;;;;;-0.22;59.97;98881.47;5008558;28;20041;-75
2022/02/02 10:18:05;;;;;;;4.82;2.40;;;;;;;-0.29;60.13;98877.06;5011550;28;20144;-77
2022/02/02 10:20:32;;;;;;;4.15;2.70;;;;;;;-0.54;59.46;98844.22;5032031;28;20038;-78
2022/02/02 10:23:00;;;;;;;6.80;2.95;;;;;;;-0.79;59.71;98796.84;5007269;28;20097;-79
2022/02/02 10:25:38;;;;;;;7.25;3.03;;;;;;;-0.18;60.10;98879.00;5013454;28;20045;-77
2022/02/02 10:28:16;;;;;;;8.35;2.97;;;;;;;-0.34;59.47;98847.19;5001335;28;20038;-75
2022/02/02 10:30:52;;;;;;;6.05;3.28;;;;;;;-0.07;60.10;98886.03;5025289;28;20045;-80
2022/02/02 10:33:19;;;;;;;5.90;3.00;;;;;;;-0.12;59.21;98862.94;5010723;28;20125;-76
2022/02/02 10:35:50;;;;;;;6.70;2.85;;;;;;;0.05;59.69;98870.91;4986683;28;20073;-76
2022/02/02 10:38:19;;;;;;;4.80;2.75;;;;;;;0.26;59.75;98874.69;5004970;28;20044;-76
2022/02/02 10:40:55;;;;;;;5.28;2.95;;;;;;;0.43;59.56;98867.31;4978279;28;20273;-77
2022/02/02 10:43:27;;;;;;;5.25;2.83;;;;;;;0.65;58.54;98871.09;4982171;28;20060;-83
2022/02/02 10:45:53;;;;;;;6.30;2.92;;;;;;;0.72;58.76;98847.31;5029795;28;20142;-79
2022/02/02 10:48:38;;;;;;;5.47;3.35;;;;;;;0.72;58.22;98825.97;4996568;28;20104;-82
2022/02/02 10:51:26;;;;;;;7.30;3.30;;;;;;;0.56;58.51;98781.34;4986645;28;20065;-82
2022/02/02 10:56:38;;;;;;;5.00;2.75;;;;;;;1.10;58.28;98841.03;5039582;28;20030;-80
2022/02/02 11:01:41;;;;;;;6.72;2.55;;;;;;;1.54;58.21;98865.53;5036782;28;20056;-79
2022/02/02 11:06:53;;;;;;;8.35;3.33;;;;;;;1.09;57.50;98841.88;5031006;28;20101;-82
2022/02/02 11:09:20;;;;;;;6.22;3.38;;;;;;;1.11;56.98;98876.06;5034343;28;20049;-81
2022/02/02 11:11:50;;;;;;;8.48;2.90;;;;;;;1.07;57.44;98871.72;5003551;28;20041;-79
2022/02/02 11:14:26;;;;;;;4.97;2.65;;;;;;;1.19;57.86;98861.66;4996451;28;20207;-82
2022/02/02 11:17:04;;;;;;;6.63;2.67;;;;;;;1.25;57.37;98867.69;4992323;28;20171;-81
2022/02/02 11:19:37;;;;;;;5.97;3.10;;;;;;;1.17;56.72;98847.97;5009188;28;20041;-84
2022/02/02 11:22:20;;;;;;;5.35;3.00;;;;;;;1.16;57.06;98851.38;4983130;28;20067;-81
2022/02/02 11:24:45;;;;;;;5.15;2.67;;;;;;;1.34;57.08;98881.50;5013222;28;20049;-81
2022/02/02 11:27:40;;;;;;;5.70;2.80;;;;;;;1.33;56.80;98889.19;5034683;28;20562;-79
2022/02/02 11:30:09;;;;;;;5.20;2.90;;;;;;;1.07;56.01;98864.03;4998571;28;20049;-81
2022/02/02 11:32:45;;;;;;;7.35;3.33;;;;;;;1.14;57.00;98888.06;4997658;28;20496;-87
2022/02/02 11:35:46;;;;;;;7.55;3.22;;;;;;;1.05;56.97;98901.59;5027798;28;20513;-78
2022/02/02 11:38:20;;;;;;;5.97;2.90;;;;;;;0.88;56.28;98888.53;5014962;28;20100;-77
2022/02/02 11:41:06;;;;;;;7.05;3.03;;;;;;;0.78;56.03;98900.31;5017297;28;20136;-77
2022/02/02 11:44:05;;;;;;;7.05;3.30;;;;;;;0.66;56.17;98905.25;5016979;28;20067;-78
2022/02/02 11:47:06;;;;;;;6.10;2.92;;;;;;;0.60;55.85;98909.41;5032526;28;20041;-78
2022/02/02 11:49:56;;;;;;;6.05;2.83;;;;;;;0.51;56.99;98916.97;4997995;28;20133;-78
2022/02/02 11:52:37;;;;;;;4.25;2.88;;;;;;;0.43;57.03;98916.84;4996485;28;20125;-77
2022/02/02 11:55:15;;;;;;;5.53;2.90;;;;;;;0.45;56.93;98917.69;5008229;28;20783;-77
2022/02/02 11:58:12;;;;;;;6.90;3.33;;;;;;;0.55;56.86;98920.44;5012688;28;20037;-76
2022/02/02 12:03:50;;;;;;;6.97;3.38;;;;;;;0.68;56.98;98911.25;5034667;28;20053;-80
2022/02/02 12:09:08;;;;;;;6.07;3.35;;;;;;;0.77;56.56;98923.34;5020839;28;20049;-79
2022/02/02 13:03:13;;;;;;;6.43;3.58;;;;;;;0.40;57.91;98967.97;5004830;28;20046;-78
2022/02/02 13:05:41;;;;;;;7.10;3.47;;;;;;;0.44;58.10;98966.31;5011700;28;20095;-76
2022/02/02 13:08:08;;;;;;;9.63;3.47;;;;;;;0.47;58.61;98963.81;5007136;28;20090;-78
2022/02/02 13:10:37;;;;;;;8.82;3.70;;;;;;;0.31;58.11;98938.78;4994244;28;20531;-78
2022/02/02 13:13:28;;;;;;;6.70;2.88;;;;;;;-0.06;58.74;98896.28;4987427;28;20373;-78
2022/02/02 13:16:16;;;;;;;6.55;3.50;;;;;;;0.29;58.46;98944.72;5024784;28;20060;-79
2022/02/02 13:18:45;;;;;;;5.80;3.60;;;;;;;0.37;58.58;98951.66;5023663;28;20509;-77
2022/02/02 13:26:45;;;;;;;5.78;2.97;;;;;;;0.43;59.19;98970.59;5014842;28;20096;-77
2022/02/02 13:29:26;;;;;;;6.07;3.47;;;;;;;0.29;59.29;98969.44;5027277;28;20045;-77
2022/02/02 13:32:06;;;;;;;7.93;3.00;;;;;;;0.31;59.16;98975.47;4979421;28;20061;-78
2022/02/02 13:37:33;;;;;;;6.03;3.47;;;;;;;0.28;58.97;98989.06;5012356;28;20103;-77
2022/02/02 13:48:27;;;;;;;6.22;3.15;;;;;;;0.16;59.43;98999.03;5009977;28;20125;-78
2022/02/02 14:25:49;;;;;;;6.35;3.42;;;;;;;0.09;59.51;99020.25;5032734;28;20045;-79
2022/02/02 14:31:12;;;;;;;7.07;3.60;;;;;;;-0.16;59.62;99035.06;5028110;28;20050;-77
2022/02/02 14:34:00;;;;;;;6.53;3.22;;;;;;;-0.07;60.06;99049.75;5015514;28;20049;-77
2022/02/02 14:36:32;;;;;;;7.75;3.47;;;;;;;-0.17;59.99;99033.34;4993027;28;20042;-77
2022/02/02 14:46:43;;;;;;;5.45;3.65;;;;;;;-0.03;60.07;99049.84;5031389;28;20049;-79
2022/02/02 14:49:18;;;;;;;7.25;3.50;;;;;;;-0.04;60.07;99049.81;4992274;28;20163;-77
2022/02/02 14:52:03;;;;;;;7.35;3.53;;;;;;;-0.01;60.75;99040.50;4984299;28;20042;-80
2022/02/02 15:29:29;;;;;;;8.85;4.20;;;;;;;0.24;60.93;99081.09;5006933;28;20045;-76
2022/02/02 15:31:57;;;;;;;10.00;4.63;;;;;;;0.18;60.32;99088.66;4990126;28;20041;-77
2022/02/02 15:34:33;;;;;;;9.25;4.30;;;;;;;-0.07;60.54;99058.25;5022832;28;20057;-78
2022/02/02 15:37:20;;;;;;;8.98;4.18;;;;;;;0.05;59.85;99090.94;4992931;28;20489;-81
2022/02/02 15:40:10;;;;;;;7.90;4.03;;;;;;;-0.05;59.81;99089.00;4984217;28;20052;-78
2022/02/02 15:58:27;;;;;;;28.05;13.00;;;;;;;-0.51;60.45;99127.13;4995475;28;20041;-78
2022/02/02 16:02:03;;;;;;;35.50;14.32;;;;;;;-0.85;59.85;99091.34;5015690;28;20037;-77
2022/02/02 16:03:47;;;;;;;35.72;15.63;;;;;;;-1.01;60.90;99097.78;5007808;28;20048;-78
2022/02/02 16:06:17;;;;;;;29.38;13.20;;;;;;;-0.96;60.56;99108.97;4990895;28;20042;-75
2022/02/02 16:08:45;;;;;;;28.48;12.20;;;;;;;-1.03;61.20;99135.19;4984216;28;20075;-76
2022/02/02 16:13:48;;;;;;;29.95;14.52;;;;;;;-1.45;60.90;99099.97;4999293;28;20520;-77
2022/02/02 16:37:36;;;;;;;27.48;10.45;;;;;;;-2.21;61.86;99172.53;4996356;28;20046;-81
2022/02/02 16:40:05;;;;;;;26.60;10.20;;;;;;;-2.61;62.03;99130.44;4985619;28;20045;-80
2022/02/02 16:45:17;;;;;;;13.73;5.05;;;;;;;-2.77;62.74;99140.13;5032083;28;20041;-78
2022/02/02 16:47:43;;;;;;;11.57;5.57;;;;;;;-2.80;62.76;99145.13;4980558;28;20041;-78
2022/02/02 16:50:15;;;;;;;12.95;5.15;;;;;;;-2.69;62.72;99172.63;5026538;28;20492;-80
2022/02/02 16:52:41;;;;;;;10.23;4.47;;;;;;;-2.75;62.85;99170.75;5000541;28;20094;-77
2022/02/02 16:55:15;;;;;;;10.93;4.75;;;;;;;-2.77;62.97;99169.81;4990392;28;20038;-77
2022/02/02 17:33:47;;;;;;;8.18;4.70;;;;;;;-3.88;63.43;99077.66;4999237;28;20053;-82
2022/02/02 17:36:27;;;;;;;7.80;4.10;;;;;;;-3.76;63.52;99113.69;5001983;28;20042;-80
2022/02/02 17:38:57;;;;;;;9.15;5.20;;;;;;;-3.46;63.67;99175.84;5013317;28;20045;-82
2022/02/02 18:19:29;;;;;;;5.18;3.13;;;;;;;-3.78;64.64;99228.09;5016484;28;20077;-82
2022/02/02 18:22:12;;;;;;;5.93;3.42;;;;;;;-3.78;64.63;99227.19;5019517;28;20053;-80
2022/02/02 18:24:52;;;;;;;5.75;3.25;;;;;;;-3.87;64.62;99193.81;5006479;28;20049;-81
2022/02/02 18:27:26;;;;;;;6.70;3.13;;;;;;;-3.91;64.51;99189.41;5017759;28;20536;-83
2022/02/02 18:30:16;;;;;;;7.10;3.42;;;;;;;-4.17;64.47;99159.59;5007774;28;20045;-79
2022/02/02 18:32:57;;;;;;;7.10;3.83;;;;;;;-3.76;64.91;99217.97;5000828;28;20038;-83
2022/02/02 18:35:33;;;;;;;4.70;3.00;;;;;;;-3.79;64.61;99223.81;5014170;28;20068;-85
2022/02/02 18:51:58;;;;;;;8.30;3.78;;;;;;;-4.48;65.57;99082.16;5002126;28;20041;-83
2022/02/02 18:57:15;;;;;;;8.57;4.32;;;;;;;-4.40;64.99;99069.75;4993682;28;20041;-83
2022/02/02 19:03:23;;;;;;;9.95;4.28;;;;;;;-4.33;64.67;99081.91;5000857;28;20055;-82
2022/02/02 19:55:00;;;;;;;8.23;4.80;;;;;;;-4.44;64.56;99144.09;5003788;28;20056;-79
2022/02/02 20:04:55;;;;;;;12.93;5.55;;;;;;;-3.68;64.55;99252.22;5025840;28;20049;-80
2022/02/02 20:12:42;;;;;;;11.65;5.50;;;;;;;-3.69;64.47;99258.09;5013360;28;20041;-80
2022/02/02 20:15:13;;;;;;;14.48;5.70;;;;;;;-4.02;64.58;99209.31;4998836;28;20065;-78
2022/02/02 20:17:40;;;;;;;11.43;5.13;;;;;;;-4.21;64.85;99195.88;5004235;28;20056;-79
2022/02/02 20:20:19;;;;;;;12.40;6.10;;;;;;;-3.81;64.94;99261.03;5029322;28;20044;-78
2022/02/02 20:22:46;;;;;;;17.20;6.78;;;;;;;-3.99;65.00;99225.53;5011023;28;20095;-78
2022/02/02 20:25:13;;;;;;;14.57;6.10;;;;;;;-3.73;65.26;99265.53;4996448;28;20033;-79
2022/02/02 20:27:40;;;;;;;13.38;6.05;;;;;;;-3.73;64.96;99265.53;5008351;28;20039;-79
2022/02/02 20:30:09;;;;;;;11.25;5.90;;;;;;;-3.86;64.54;99249.78;4978501;28;20158;-80
2022/02/02 20:35:28;;;;;;;11.82;5.95;;;;;;;-3.89;65.11;99220.84;4991090;28;20483;-76
2022/02/02 20:37:57;;;;;;;13.35;6.78;;;;;;;-3.64;64.84;99266.75;4984481;28;20053;-79
2022/02/02 20:40:25;;;;;;;14.95;6.40;;;;;;;-3.78;64.75;99245.00;4989898;28;20072;-79
2022/02/02 20:43:02;;;;;;;17.48;6.55;;;;;;;-4.18;65.18;99190.88;4970576;28;20458;-78
2022/02/02 21:07:49;;;;;;;12.00;5.03;;;;;;;-4.13;64.65;99244.47;5009335;28;20159;-77
2022/02/02 21:10:27;;;;;;;13.40;6.28;;;;;;;-4.05;65.32;99254.94;4998570;28;20038;-79
2022/02/02 21:15:42;;;;;;;15.07;6.05;;;;;;;-4.14;64.95;99251.19;5005753;28;20034;-80
2022/02/02 21:18:17;;;;;;;14.63;6.07;;;;;;;-4.24;64.96;99242.34;4990376;28;20369;-79
2022/02/02 21:20:58;;;;;;;14.23;5.95;;;;;;;-4.55;64.91;99200.41;4990320;28;20553;-81
2022/02/02 21:28:37;;;;;;;11.25;5.47;;;;;;;-4.17;64.37;99301.03;5017397;28;20404;-78
2022/02/02 21:31:06;;;;;;;12.43;6.50;;;;;;;-4.33;65.33;99292.78;5013587;28;20039;-77
2022/02/02 21:33:37;;;;;;;12.27;5.57;;;;;;;-4.54;65.24;99245.34;4983429;28;20072;-78
2022/02/02 21:36:04;;;;;;;12.32;6.35;;;;;;;-4.50;65.31;99269.19;5012820;28;20440;-78
2022/02/02 21:38:53;;;;;;;15.50;6.70;;;;;;;-4.36;65.90;99299.38;5027689;28;20041;-80
2022/02/02 21:41:23;;;;;;;13.73;6.20;;;;;;;-4.22;66.00;99307.59;5030045;28;20046;-81
2022/02/02 21:43:58;;;;;;;13.60;6.70;;;;;;;-4.18;65.79;99299.31;5009833;28;20128;-79
2022/02/02 21:46:25;;;;;;;14.70;7.05;;;;;;;-4.19;65.84;99288.25;5003166;28;20046;-79
2022/02/02 21:48:53;;;;;;;14.77;6.53;;;;;;;-3.96;65.69;99312.09;5024599;28;20045;-78
2022/02/02 21:51:35;;;;;;;12.95;6.55;;;;;;;-3.97;65.49;99305.28;4976492;28;20033;-80
2022/02/02 21:54:01;;;;;;;15.45;6.45;;;;;;;-3.95;65.53;99293.50;4993869;28;20037;-78
2022/02/02 21:56:27;;;;;;;13.77;6.70;;;;;;;-4.04;65.36;99288.03;5001990;28;20075;-78
2022/02/02 21:59:04;;;;;;;16.17;7.18;;;;;;;-3.83;65.11;99313.50;5015513;28;20081;-79
2022/02/02 22:01:30;;;;;;;14.93;6.45;;;;;;;-3.86;65.32;99302.34;5022260;28;20108;-79
2022/02/02 22:03:58;;;;;;;15.90;7.32;;;;;;;-4.03;65.59;99268.59;5026410;28;20041;-82
2022/02/02 22:06:24;;;;;;;13.93;7.00;;;;;;;-3.89;65.28;99300.50;5009952;28;20473;-79
2022/02/02 22:08:54;;;;;;;12.30;6.28;;;;;;;-3.66;65.21;99321.81;5007820;28;20453;-79
2022/02/02 22:11:23;;;;;;;15.35;7.25;;;;;;;-3.89;65.23;99267.47;4995132;28;20405;-77
2022/02/02 22:14:00;;;;;;;12.45;6.55;;;;;;;-3.72;65.24;99291.03;5011903;28;20064;-78
2022/02/02 22:16:26;;;;;;;14.60;6.63;;;;;;;-3.62;65.18;99299.91;5001933;28;20452;-79
2022/02/02 22:18:56;;;;;;;16.20;7.07;;;;;;;-3.67;65.23;99289.56;5005006;28;20041;-80
2022/02/02 22:21:24;;;;;;;15.63;7.05;;;;;;;-3.41;64.98;99321.91;5027251;28;20037;-82
2022/02/02 22:23:50;;;;;;;10.57;6.43;;;;;;;-3.55;64.79;99301.00;5023995;28;20045;-80
2022/02/02 22:26:18;;;;;;;13.88;6.70;;;;;;;-3.58;64.93;99303.44;4996735;28;20048;-80
2022/02/02 22:28:44;;;;;;;12.63;6.63;;;;;;;-3.53;65.25;99307.88;5011870;28;20505;-82
2022/02/02 22:31:10;;;;;;;17.58;7.75;;;;;;;-3.50;64.74;99317.34;5025509;28;21002;-78
2022/02/02 22:33:36;;;;;;;16.88;8.07;;;;;;;-3.48;64.84;99326.75;5022916;28;20528;-78
2022/02/02 22:36:03;;;;;;;14.80;7.32;;;;;;;-3.60;64.63;99311.00;4994386;28;20076;-80
2022/02/02 22:39:10;;;;;;;17.50;8.00;;;;;;;-3.61;65.01;99311.81;4990020;28;20065;-80
2022/02/02 22:41:36;;;;;;;28.50;13.35;;;;;;;-3.88;63.74;99314.97;4988630;28;20045;-77
2022/02/02 22:44:08;;;;;;;20.08;9.45;;;;;;;-3.89;64.52;99318.31;4990694;28;20033;-78
2022/02/02 22:46:35;;;;;;;17.80;8.00;;;;;;;-3.99;64.78;99301.81;5024348;28;21138;-76
2022/02/02 22:49:01;;;;;;;28.15;11.23;;;;;;;-3.78;64.79;99327.25;4975210;28;20603;-79
2022/02/02 22:51:29;;;;;;;21.90;10.70;;;;;;;-3.68;64.45;99333.59;4990003;28;20540;-79
2022/02/02 22:53:56;;;;;;;23.60;11.02;;;;;;;-3.79;64.85;99305.19;5004779;28;20049;-79
2022/02/02 22:56:22;;;;;;;25.17;11.63;;;;;;;-3.66;64.23;99320.94;4991757;28;20048;-79
2022/02/02 22:58:49;;;;;;;24.67;10.52;;;;;;;-3.84;64.51;99306.66;5003125;28;20038;-78
2022/02/02 23:01:16;;;;;;;30.75;11.95;;;;;;;-3.71;64.78;99325.84;5004694;28;20041;-77
2022/02/02 23:03:43;;;;;;;20.25;9.48;;;;;;;-3.64;64.50;99332.88;5005211;28;20073;-79
2022/02/02 23:06:09;;;;;;;21.92;9.45;;;;;;;-3.66;64.38;99314.19;5026079;28;20049;-80
2022/02/02 23:08:35;;;;;;;17.00;8.10;;;;;;;-3.71;64.57;99299.53;5026442;28;20048;-81
2022/02/02 23:11:01;;;;;;;22.88;8.70;;;;;;;-3.59;64.58;99320.38;5005108;28;20079;-76
2022/02/02 23:13:30;;;;;;;21.55;9.57;;;;;;;-3.61;64.69;99322.00;5004222;28;20420;-78
2022/02/02 23:18:25;;;;;;;24.20;11.18;;;;;;;-3.95;63.74;99324.03;5005515;28;20037;-78
2022/02/02 23:20:56;;;;;;;22.45;10.75;;;;;;;-4.04;64.13;99316.00;5024560;28;20048;-77